createdAt,value
2022-09-11T00:02:12.571Z,100.00
2022-09-11T00:04:39.614Z,100.00
2022-09-11T00:07:06.572Z,100.00
2022-09-11T00:09:33.480Z,99.83
2022-09-11T00:12:00.355Z,100.00
2022-09-11T00:14:28.917Z,100.00
2022-09-11T00:16:55.893Z,100.00
2022-09-11T00:19:22.827Z,100.00
2022-09-11T00:21:53.563Z,100.00
2022-09-11T00:24:20.442Z,100.00
2022-09-11T00:26:47.998Z,100.00
2022-09-11T00:29:14.940Z,100.00
2022-09-11T00:31:41.981Z,100.00
2022-09-11T00:34:09.697Z,100.00
2022-09-11T00:36:37.678Z,100.00
2022-09-11T00:39:04.692Z,100.00
2022-09-11T00:41:36.369Z,100.00
2022-09-11T00:44:28.457Z,100.00
2022-09-11T00:46:59.007Z,100.00
2022-09-11T00:49:38.650Z,100.00
2022-09-11T00:52:27.397Z,100.00
2022-09-11T00:54:54.385Z,100.00
2022-09-11T00:57:24.863Z,100.00
2022-09-11T00:59:56.043Z,100.00
2022-09-11T01:02:27.627Z,100.00
2022-09-11T01:04:55.994Z,100.00
2022-09-11T01:07:25.533Z,100.00
2022-09-11T01:09:53.898Z,100.00
2022-09-11T01:12:31.940Z,100.00
2022-09-11T01:15:07.732Z,100.00
2022-09-11T01:17:58.301Z,100.00
2022-09-11T01:20:53.937Z,100.00
2022-09-11T01:23:20.608Z,100.00
2022-09-11T01:26:09.362Z,100.00
2022-09-11T01:28:44.717Z,100.00
2022-09-11T01:31:16.579Z,100.00
2022-09-11T01:33:51.084Z,100.00
2022-09-11T01:36:22.353Z,100.00
2022-09-11T01:38:57.187Z,100.00
2022-09-11T01:41:33.081Z,100.00
2022-09-11T01:44:07.230Z,100.00
2022-09-11T01:46:41.168Z,100.00
2022-09-11T01:49:17.040Z,100.00
2022-09-11T01:51:47.676Z,100.00
2022-09-11T01:54:23.214Z,100.00
2022-09-11T01:56:56.425Z,100.00
2022-09-11T01:59:31.665Z,100.00
2022-09-11T02:02:04.204Z,100.00
2022-09-11T02:04:37.503Z,100.00
2022-09-11T02:07:12.970Z,100.00
2022-09-11T02:10:14.594Z,100.00
2022-09-11T02:12:51.850Z,100.00
2022-09-11T02:15:19.460Z,100.00
2022-09-11T02:17:52.535Z,100.00
2022-09-11T02:20:21.113Z,100.00
2022-09-11T02:22:49.163Z,100.00
2022-09-11T02:25:16.315Z,100.00
2022-09-11T02:27:45.245Z,100.00
2022-09-11T02:30:13.249Z,100.00
2022-09-11T02:32:43.767Z,100.00
2022-09-11T02:35:11.498Z,100.00
2022-09-11T02:38:05.398Z,100.00
2022-09-11T02:40:48.509Z,100.00
2022-09-11T02:43:22.994Z,100.00
2022-09-11T02:46:13.377Z,100.00
2022-09-11T02:48:55.525Z,100.00
2022-09-11T02:51:37.271Z,100.00
2022-09-11T02:54:07.704Z,100.00
2022-09-11T02:56:44.170Z,100.00
2022-09-11T02:59:37.473Z,100.00
2022-09-11T03:02:10.633Z,100.00
2022-09-11T03:04:38.381Z,100.00
2022-09-11T03:07:05.870Z,100.00
2022-09-11T03:09:35.006Z,100.00
2022-09-11T03:12:08.244Z,100.00
2022-09-11T03:14:38.325Z,100.00
2022-09-11T03:17:06.133Z,100.00
2022-09-11T03:19:34.793Z,100.00
2022-09-11T03:22:03.083Z,100.00
2022-09-11T03:24:30.156Z,100.00
2022-09-11T03:26:57.084Z,100.00
2022-09-11T03:29:24.818Z,100.00
2022-09-11T03:31:52.346Z,100.00
2022-09-11T03:34:19.936Z,100.00
2022-09-11T03:36:48.173Z,100.00
2022-09-11T03:39:15.372Z,100.00
2022-09-11T03:41:42.246Z,100.00
2022-09-11T03:44:09.393Z,100.00
2022-09-11T03:46:36.548Z,100.00
2022-09-11T03:49:03.509Z,100.00
2022-09-11T03:51:32.201Z,100.00
2022-09-11T03:54:03.097Z,100.00
2022-09-11T03:56:31.400Z,100.00
2022-09-11T03:59:00.336Z,100.00
2022-09-11T04:01:28.291Z,100.00
2022-09-11T04:03:56.139Z,100.00
2022-09-11T04:06:40.697Z,100.00
2022-09-11T04:09:09.190Z,100.00
2022-09-11T04:11:39.055Z,100.00
2022-09-11T04:14:13.112Z,100.00
2022-09-11T04:16:42.231Z,100.00
2022-09-11T04:19:11.692Z,100.00
2022-09-11T04:21:39.390Z,100.00
2022-09-11T04:24:06.862Z,100.00
2022-09-11T04:26:35.149Z,100.00
2022-09-11T04:29:11.135Z,100.00
2022-09-11T04:31:38.497Z,100.00
2022-09-11T04:34:09.309Z,100.00
2022-09-11T04:36:37.280Z,100.00
2022-09-11T04:39:04.543Z,100.00
2022-09-11T04:41:32.097Z,100.00
2022-09-11T04:44:05.164Z,100.00
2022-09-11T04:46:37.211Z,100.00
2022-09-11T04:49:08.900Z,100.00
2022-09-11T04:51:37.226Z,100.00
2022-09-11T04:54:05.656Z,100.00
2022-09-11T04:56:40.129Z,100.00
2022-09-11T04:59:16.216Z,99.57
2022-09-11T05:01:48.696Z,95.77
2022-09-11T05:04:21.747Z,94.44
2022-09-11T05:06:50.219Z,100.00
2022-09-11T05:09:19.002Z,96.35
2022-09-11T05:11:47.648Z,92.97
2022-09-11T05:14:15.565Z,91.41
2022-09-11T05:16:45.549Z,82.03
2022-09-11T05:19:14.663Z,77.67
2022-09-11T05:21:43.573Z,74.95
2022-09-11T05:24:10.705Z,76.37
2022-09-11T05:26:38.293Z,71.12
2022-09-11T05:29:10.643Z,64.42
2022-09-11T05:31:44.109Z,58.01
2022-09-11T05:34:13.545Z,56.14
2022-09-11T05:36:41.671Z,53.90
2022-09-11T05:39:10.544Z,52.36
2022-09-11T05:41:38.702Z,52.55
2022-09-11T05:44:05.742Z,51.57
2022-09-11T05:46:33.642Z,53.48
2022-09-11T05:49:03.210Z,56.77
2022-09-11T05:51:30.152Z,57.24
2022-09-11T05:53:58.761Z,67.91
2022-09-11T05:56:28.335Z,68.32
2022-09-11T05:58:59.492Z,71.21
2022-09-11T06:01:34.517Z,68.87
2022-09-11T06:04:13.023Z,70.99
2022-09-11T06:06:43.836Z,73.27
2022-09-11T06:09:10.819Z,71.56
2022-09-11T06:11:37.830Z,71.47
2022-09-11T06:14:05.034Z,70.38
2022-09-11T06:16:32.647Z,70.35
2022-09-11T06:19:07.765Z,65.70
2022-09-11T06:21:35.046Z,62.41
2022-09-11T06:24:08.433Z,59.43
2022-09-11T06:26:35.897Z,53.17
2022-09-11T06:29:03.402Z,54.94
2022-09-11T06:31:33.238Z,57.38
2022-09-11T06:34:00.607Z,61.67
2022-09-11T06:36:27.832Z,60.47
2022-09-11T06:38:58.464Z,63.24
2022-09-11T06:41:28.185Z,60.09
2022-09-11T06:44:03.790Z,60.32
2022-09-11T06:46:31.458Z,58.55
2022-09-11T06:49:00.524Z,54.92
2022-09-11T06:51:29.016Z,56.54
2022-09-11T06:53:59.451Z,52.25
2022-09-11T06:56:32.481Z,51.00
2022-09-11T06:59:01.079Z,47.18
2022-09-11T07:01:29.430Z,43.91
2022-09-11T07:04:02.793Z,46.60
2022-09-11T07:06:33.173Z,48.96
2022-09-11T07:09:02.671Z,48.40
2022-09-11T07:11:45.043Z,47.80
2022-09-11T07:14:12.260Z,48.80
2022-09-11T07:16:42.286Z,51.03
2022-09-11T07:19:12.481Z,49.78
2022-09-11T07:21:40.242Z,48.51
2022-09-11T07:24:07.580Z,50.48
2022-09-11T07:26:39.217Z,50.48
2022-09-11T07:29:12.871Z,48.29
2022-09-11T07:31:41.254Z,48.00
2022-09-11T07:34:10.876Z,47.19
2022-09-11T07:36:37.808Z,47.53
2022-09-11T07:39:08.076Z,47.54
2022-09-11T07:41:39.473Z,47.16
2022-09-11T07:44:15.113Z,48.10
2022-09-11T07:46:42.246Z,47.87
2022-09-11T07:49:11.563Z,46.14
2022-09-11T07:51:41.468Z,46.39
2022-09-11T07:54:10.122Z,47.25
2022-09-11T07:56:38.635Z,47.15
2022-09-11T07:59:08.981Z,45.98
2022-09-11T08:01:39.141Z,47.52
2022-09-11T08:04:10.272Z,47.06
2022-09-11T08:06:38.630Z,44.29
2022-09-11T08:09:15.191Z,45.94
2022-09-11T08:11:48.962Z,44.39
2022-09-11T08:14:18.119Z,41.79
2022-09-11T08:16:48.478Z,43.98
2022-09-11T08:19:22.650Z,45.26
2022-09-11T08:21:54.720Z,43.61
2022-09-11T08:24:21.816Z,43.97
2022-09-11T08:26:51.370Z,43.22
2022-09-11T08:29:19.418Z,41.83
2022-09-11T08:31:47.664Z,42.34
2022-09-11T08:34:17.203Z,41.96
2022-09-11T08:36:45.120Z,41.70
2022-09-11T08:39:12.453Z,44.72
2022-09-11T08:41:50.518Z,48.52
2022-09-11T08:44:22.182Z,51.07
2022-09-11T08:46:57.152Z,50.05
2022-09-11T08:49:36.692Z,50.51
2022-09-11T08:52:06.049Z,47.93
2022-09-11T08:54:38.197Z,50.00
2022-09-11T08:57:27.211Z,50.67
2022-09-11T09:00:15.119Z,49.63
2022-09-11T09:03:17.976Z,49.82
2022-09-11T09:06:08.709Z,44.66
2022-09-11T09:08:50.724Z,44.35
2022-09-11T09:11:37.906Z,44.84
2022-09-11T09:14:35.442Z,41.65
2022-09-11T09:17:11.985Z,39.66
2022-09-11T09:19:54.517Z,39.28
2022-09-11T09:22:31.976Z,41.27
2022-09-11T09:25:04.992Z,42.28
2022-09-11T09:27:40.321Z,43.95
2022-09-11T09:30:16.006Z,44.24
2022-09-11T09:33:13.403Z,42.33
2022-09-11T09:35:44.796Z,39.75
2022-09-11T09:38:21.815Z,36.12
2022-09-11T09:40:59.991Z,36.71
2022-09-11T09:43:42.951Z,33.99
2022-09-11T09:46:34.693Z,33.24
2022-09-11T09:49:01.736Z,34.79
2022-09-11T09:51:29.317Z,32.27
2022-09-11T09:54:01.334Z,31.79
2022-09-11T09:56:31.914Z,34.75
2022-09-11T09:59:21.305Z,36.28
2022-09-11T10:01:54.099Z,34.88
2022-09-11T10:04:27.045Z,33.01
2022-09-11T10:07:06.819Z,30.19
2022-09-11T10:09:34.438Z,30.12
2022-09-11T10:12:08.368Z,31.28
2022-09-11T10:14:52.222Z,28.41
2022-09-11T10:17:21.219Z,28.79
2022-09-11T10:19:48.199Z,29.48
2022-09-11T10:22:22.311Z,27.91
2022-09-11T10:25:26.867Z,28.36
2022-09-11T10:28:13.091Z,27.24
2022-09-11T10:30:42.676Z,27.10
2022-09-11T10:33:29.143Z,27.50
2022-09-11T10:35:56.925Z,25.72
2022-09-11T10:38:32.334Z,26.04
2022-09-11T10:41:14.877Z,26.96
2022-09-11T10:43:53.735Z,28.39
2022-09-11T10:46:29.899Z,26.95
2022-09-11T10:49:20.685Z,26.62
2022-09-11T10:52:22.252Z,29.52
2022-09-11T10:55:15.329Z,27.39
2022-09-11T10:57:44.822Z,26.88
2022-09-11T11:00:21.319Z,26.96
2022-09-11T11:03:06.633Z,28.59
2022-09-11T11:06:03.596Z,27.14
2022-09-11T11:08:59.812Z,28.05
2022-09-11T11:11:52.120Z,26.37
2022-09-11T11:14:38.028Z,28.10
2022-09-11T11:17:37.771Z,29.61
2022-09-11T11:20:11.016Z,29.54
2022-09-11T11:22:58.441Z,30.35
2022-09-11T11:25:50.436Z,30.38
2022-09-11T11:28:44.548Z,29.98
2022-09-11T11:31:19.277Z,28.58
2022-09-11T11:34:20.513Z,28.10
2022-09-11T11:37:06.618Z,24.72
2022-09-11T11:39:48.070Z,24.62
2022-09-11T11:42:23.172Z,25.99
2022-09-11T11:45:13.374Z,25.44
2022-09-11T11:47:43.313Z,25.79
2022-09-11T11:50:32.988Z,26.36
2022-09-11T11:53:14.125Z,23.52
2022-09-11T11:56:28.922Z,26.25
2022-09-11T11:59:32.107Z,23.68
2022-09-11T12:02:05.432Z,22.60
2022-09-11T12:04:48.941Z,24.96
2022-09-11T12:07:21.770Z,24.81
2022-09-11T12:09:50.536Z,25.65
2022-09-11T12:12:19.436Z,24.25
2022-09-11T12:15:17.907Z,25.01
2022-09-11T12:17:49.468Z,23.69
2022-09-11T12:20:31.652Z,22.83
2022-09-11T12:22:59.732Z,23.48
2022-09-11T12:25:30.055Z,23.58
2022-09-11T12:28:26.420Z,26.81
2022-09-11T12:31:17.623Z,25.38
2022-09-11T12:33:45.037Z,25.15
2022-09-11T12:36:24.599Z,25.80
2022-09-11T12:39:06.204Z,25.60
2022-09-11T12:41:35.677Z,25.46
2022-09-11T12:44:04.732Z,24.01
2022-09-11T12:46:31.557Z,25.44
2022-09-11T12:49:23.375Z,25.81
2022-09-11T12:51:54.154Z,25.53
2022-09-11T12:54:33.532Z,24.66
2022-09-11T12:57:15.166Z,24.74
2022-09-11T12:59:46.730Z,25.38
2022-09-11T13:02:40.033Z,25.75
2022-09-11T13:05:18.611Z,26.13
2022-09-11T13:07:50.850Z,27.32
2022-09-11T13:10:44.139Z,27.57
2022-09-11T13:13:37.643Z,27.65
2022-09-11T13:16:23.047Z,27.80
2022-09-11T13:18:50.254Z,28.01
2022-09-11T13:21:21.155Z,28.42
2022-09-11T13:23:50.066Z,28.10
2022-09-11T13:26:31.631Z,28.71
2022-09-11T13:29:01.454Z,28.24
2022-09-11T13:31:33.971Z,28.12
2022-09-11T13:34:04.128Z,27.42
2022-09-11T13:36:33.654Z,26.67
2022-09-11T13:39:02.936Z,27.46
2022-09-11T13:41:44.510Z,28.36
2022-09-11T13:44:25.465Z,28.92
2022-09-11T13:46:52.377Z,29.43
2022-09-11T13:49:31.763Z,29.85
2022-09-11T13:51:59.203Z,29.79
2022-09-11T13:54:38.417Z,30.34
2022-09-11T13:57:13.973Z,30.46
2022-09-11T13:59:44.881Z,30.53
2022-09-11T14:02:38.102Z,30.00
2022-09-11T14:05:10.771Z,30.27
2022-09-11T14:07:59.400Z,30.76
2022-09-11T14:10:33.957Z,30.51
2022-09-11T14:13:10.726Z,30.19
2022-09-11T14:15:49.364Z,30.71
2022-09-11T14:18:34.220Z,30.95
2022-09-11T14:21:05.243Z,30.10
2022-09-11T14:23:40.177Z,30.49
2022-09-11T14:26:09.004Z,29.97
2022-09-11T14:28:41.189Z,31.04
2022-09-11T14:31:11.112Z,30.89
2022-09-11T14:33:38.518Z,29.99
2022-09-11T14:36:15.001Z,29.02
2022-09-11T14:38:42.058Z,29.66
2022-09-11T14:41:09.017Z,30.79
2022-09-11T14:43:38.815Z,30.99
2022-09-11T14:46:06.119Z,30.82
2022-09-11T14:48:35.043Z,30.81
2022-09-11T14:51:09.923Z,31.72
2022-09-11T14:53:43.224Z,32.70
2022-09-11T14:56:10.527Z,32.09
2022-09-11T14:58:37.419Z,31.17
2022-09-11T15:01:04.340Z,30.88
2022-09-11T15:03:31.888Z,30.26
2022-09-11T15:05:59.652Z,29.99
2022-09-11T15:08:26.503Z,29.94
2022-09-11T15:10:53.816Z,31.15
2022-09-11T15:13:21.747Z,31.50
2022-09-11T15:15:51.021Z,32.40
2022-09-11T15:18:18.814Z,32.25
2022-09-11T15:20:45.827Z,32.54
2022-09-11T15:23:12.775Z,33.09
2022-09-11T15:25:41.051Z,33.44
2022-09-11T15:28:10.237Z,32.60
2022-09-11T15:30:37.995Z,32.14
2022-09-11T15:33:05.386Z,32.30
2022-09-11T15:35:33.194Z,31.56
2022-09-11T15:38:00.571Z,31.30
2022-09-11T15:40:27.509Z,31.57
2022-09-11T15:42:57.018Z,32.68
2022-09-11T15:45:24.269Z,33.31
2022-09-11T15:47:51.310Z,33.19
2022-09-11T15:50:24.484Z,33.50
2022-09-11T15:52:51.443Z,33.32
2022-09-11T15:55:18.423Z,33.63
2022-09-11T15:57:45.506Z,34.28
2022-09-11T16:00:14.630Z,34.72
2022-09-11T16:02:42.727Z,34.82
2022-09-11T16:05:10.361Z,34.33
2022-09-11T16:07:37.298Z,34.37
2022-09-11T16:10:04.498Z,34.29
2022-09-11T16:12:31.381Z,34.48
2022-09-11T16:14:58.831Z,34.64
2022-09-11T16:17:32.506Z,34.37
2022-09-11T16:19:59.582Z,34.56
2022-09-11T16:22:27.006Z,34.98
2022-09-11T16:24:54.389Z,35.45
2022-09-11T16:27:21.276Z,35.91
2022-09-11T16:32:39.289Z,35.67
2022-09-11T16:35:08.501Z,35.60
2022-09-11T16:37:35.516Z,36.03
2022-09-11T16:40:03.398Z,36.21
2022-09-11T16:42:31.850Z,36.28
2022-09-11T16:44:58.728Z,36.56
2022-09-11T16:47:25.632Z,36.56
2022-09-11T16:50:09.153Z,36.80
2022-09-11T16:52:37.266Z,36.36
2022-09-11T16:55:06.782Z,36.32
2022-09-11T16:57:34.599Z,36.03
2022-09-11T17:00:02.235Z,35.67
2022-09-11T17:02:29.313Z,36.27
2022-09-11T17:04:56.220Z,36.52
2022-09-11T17:07:23.906Z,36.95
2022-09-11T17:09:51.043Z,37.40
2022-09-11T17:12:17.997Z,37.54
2022-09-11T17:14:45.142Z,37.30
2022-09-11T17:17:12.184Z,37.77
2022-09-11T17:19:39.373Z,37.17
2022-09-11T17:22:06.816Z,36.89
2022-09-11T17:24:33.815Z,37.47
2022-09-11T17:27:01.936Z,37.44
2022-09-11T17:29:28.801Z,37.09
2022-09-11T17:32:16.618Z,37.29
2022-09-11T17:34:43.191Z,37.68
2022-09-11T17:37:10.254Z,37.88
2022-09-11T17:39:37.236Z,37.84
2022-09-11T17:42:04.339Z,37.82
2022-09-11T17:44:31.429Z,37.55
2022-09-11T17:47:02.357Z,37.60
2022-09-11T17:49:32.620Z,38.18
2022-09-11T17:52:00.194Z,38.11
2022-09-11T17:54:28.250Z,38.68
2022-09-11T17:56:56.202Z,39.24
2022-09-11T17:59:23.832Z,39.11
2022-09-11T18:01:51.285Z,39.19
2022-09-11T18:04:26.790Z,38.97
2022-09-11T18:06:56.890Z,38.48
2022-09-11T18:09:26.687Z,39.23
2022-09-11T18:11:54.730Z,39.74
2022-09-11T18:14:23.118Z,40.04
2022-09-11T18:16:50.247Z,39.65
2022-09-11T18:19:20.466Z,40.16
2022-09-11T18:21:50.407Z,39.94
2022-09-11T18:24:20.827Z,39.94
2022-09-11T18:26:50.938Z,39.58
2022-09-11T18:29:20.097Z,39.62
2022-09-11T18:31:50.152Z,39.66
2022-09-11T18:34:20.219Z,39.89
2022-09-11T18:36:47.656Z,40.38
2022-09-11T18:39:17.829Z,40.47
2022-09-11T18:41:46.552Z,40.80
2022-09-11T18:44:19.432Z,41.35
2022-09-11T18:46:47.772Z,41.53
2022-09-11T18:49:15.848Z,41.46
2022-09-11T18:51:43.046Z,42.06
2022-09-11T18:54:15.109Z,41.89
2022-09-11T18:56:42.847Z,41.83
2022-09-11T18:59:11.303Z,41.93
2022-09-11T19:01:40.118Z,43.10
2022-09-11T19:04:10.274Z,43.35
2022-09-11T19:06:40.737Z,42.92
2022-09-11T19:09:13.485Z,42.29
2022-09-11T19:11:41.298Z,41.84
2022-09-11T19:14:11.033Z,42.75
2022-09-11T19:16:39.651Z,42.23
2022-09-11T19:19:10.871Z,42.77
2022-09-11T19:21:40.619Z,42.67
2022-09-11T19:24:07.852Z,43.33
2022-09-11T19:26:40.581Z,43.53
2022-09-11T19:29:12.428Z,43.40
2022-09-11T19:31:40.490Z,43.12
2022-09-11T19:34:11.593Z,43.04
2022-09-11T19:36:38.791Z,43.18
2022-09-11T19:39:06.194Z,43.13
2022-09-11T19:41:37.346Z,43.23
2022-09-11T19:44:05.937Z,44.32
2022-09-11T19:46:34.433Z,48.19
2022-09-11T19:49:09.017Z,49.28
2022-09-11T19:51:39.294Z,48.99
2022-09-11T19:54:06.818Z,47.71
2022-09-11T19:56:36.242Z,48.02
2022-09-11T19:59:04.582Z,48.24
2022-09-11T20:01:32.063Z,47.50
2022-09-11T20:04:00.528Z,47.37
2022-09-11T20:06:30.467Z,46.21
2022-09-11T20:09:19.757Z,46.42
2022-09-11T20:11:45.601Z,46.51
2022-09-11T20:14:12.734Z,46.08
2022-09-11T20:16:40.052Z,46.69
2022-09-11T20:19:07.140Z,47.06
2022-09-11T20:21:36.311Z,46.96
2022-09-11T20:24:06.470Z,46.31
2022-09-11T20:26:34.345Z,46.77
2022-09-11T20:29:07.441Z,46.76
2022-09-11T20:31:46.291Z,46.31
2022-09-11T20:34:14.638Z,46.50
2022-09-11T20:36:43.014Z,46.90
2022-09-11T20:39:13.056Z,47.75
2022-09-11T20:41:40.068Z,47.43
2022-09-11T20:44:07.168Z,47.46
2022-09-11T20:46:34.175Z,47.22
2022-09-11T20:49:01.206Z,48.33
2022-09-11T20:51:28.279Z,49.25
2022-09-11T20:53:55.602Z,49.58
2022-09-11T20:56:23.999Z,49.98
2022-09-11T20:58:52.270Z,50.20
2022-09-11T21:01:22.112Z,51.24
2022-09-11T21:03:54.753Z,51.39
2022-09-11T21:06:26.155Z,51.10
2022-09-11T21:08:56.105Z,50.34
2022-09-11T21:11:26.903Z,50.26
2022-09-11T21:13:54.430Z,50.60
2022-09-11T21:16:21.740Z,50.28
2022-09-11T21:18:54.231Z,49.62
2022-09-11T21:21:22.573Z,49.69
2022-09-11T21:23:49.701Z,49.72
2022-09-11T21:26:18.005Z,49.71
2022-09-11T21:28:45.557Z,49.88
2022-09-11T21:31:15.820Z,50.59
2022-09-11T21:33:46.001Z,50.37
2022-09-11T21:36:16.298Z,50.00
2022-09-11T21:38:43.436Z,50.03
2022-09-11T21:41:12.853Z,49.48
2022-09-11T21:43:39.817Z,49.36
2022-09-11T21:46:08.694Z,49.07
2022-09-11T21:48:38.195Z,48.92
2022-09-11T21:51:18.702Z,49.23
2022-09-11T21:53:46.971Z,50.22
2022-09-11T21:56:25.098Z,50.45
2022-09-11T21:58:53.236Z,50.03
2022-09-11T22:01:21.708Z,48.94
2022-09-11T22:03:48.975Z,48.85
2022-09-11T22:06:16.767Z,50.16
2022-09-11T22:08:44.581Z,50.76
2022-09-11T22:11:11.794Z,50.96
2022-09-11T22:13:40.317Z,51.42
2022-09-11T22:16:13.387Z,52.05
2022-09-11T22:18:41.256Z,51.84
2022-09-11T22:21:10.483Z,51.79
2022-09-11T22:23:38.044Z,51.33
2022-09-11T22:26:09.786Z,51.15
2022-09-11T22:28:37.982Z,51.40
2022-09-11T22:31:13.477Z,51.42
2022-09-11T22:33:42.034Z,52.45
2022-09-11T22:36:17.420Z,52.19
2022-09-11T22:38:44.503Z,52.40
2022-09-11T22:41:11.551Z,52.33
2022-09-11T22:43:38.635Z,50.89
2022-09-11T22:46:06.034Z,50.48
2022-09-11T22:48:33.676Z,50.15
2022-09-11T22:51:00.740Z,50.22
2022-09-11T22:53:28.821Z,49.30
2022-09-11T22:55:55.917Z,49.64
2022-09-11T22:58:23.867Z,50.48
2022-09-11T23:00:53.864Z,51.49
2022-09-11T23:03:21.016Z,51.66
2022-09-11T23:06:06.739Z,51.41
2022-09-11T23:08:45.714Z,53.07
2022-09-11T23:11:17.955Z,54.18
2022-09-11T23:13:45.043Z,55.44
2022-09-11T23:16:21.719Z,55.01
2022-09-11T23:18:48.888Z,54.28
2022-09-11T23:21:15.981Z,54.77
2022-09-11T23:23:43.600Z,54.56
2022-09-11T23:26:14.464Z,54.68
2022-09-11T23:28:41.502Z,55.70
2022-09-11T23:31:13.736Z,55.51
2022-09-11T23:33:41.072Z,56.16
2022-09-11T23:36:09.745Z,57.61
2022-09-11T23:38:36.998Z,57.24
2022-09-11T23:41:04.593Z,57.80
2022-09-11T23:43:31.452Z,57.38
2022-09-11T23:45:58.439Z,57.98
2022-09-11T23:48:25.334Z,57.04
2022-09-11T23:50:52.406Z,56.83
2022-09-11T23:53:19.346Z,57.98
2022-09-11T23:55:52.298Z,58.03
2022-09-11T23:58:19.175Z,57.99
